sensor_id;sensor_type;location;lat;lon;timestamp;pressure;altitude;pressure_sealevel;temperature;humidity
59029;BME280;45919;51.420;5.454;2022-10-16T00:00:38;100883.50;;;13.35;89.92
59029;BME280;45919;51.420;5.454;2022-10-16T00:01:40;100885.22;;;13.36;90.02
59029;BME280;45919;51.420;5.454;2022-10-16T00:02:42;100872.97;;;13.31;89.83
59029;BME280;45919;51.420;5.454;2022-10-16T00:03:44;100883.50;;;13.37;90.01
59029;BME280;45919;51.420;5.454;2022-10-16T00:04:46;100874.69;;;13.28;90.05
59029;BME280;45919;51.420;5.454;2022-10-16T00:05:47;100868.59;;;13.30;90.14
59029;BME280;45919;51.420;5.454;2022-10-16T00:06:49;100886.13;;;13.38;89.96
59029;BME280;45919;51.420;5.454;2022-10-16T00:07:51;100870.34;;;13.27;90.06
59029;BME280;45919;51.420;5.454;2022-10-16T00:08:53;100880.88;;;13.38;89.82
59029;BME280;45919;51.420;5.454;2022-10-16T00:09:55;100883.50;;;13.38;89.95
59029;BME280;45919;51.420;5.454;2022-10-16T00:11:07;100881.75;;;13.44;90.16
59029;BME280;45919;51.420;5.454;2022-10-16T00:12:09;100882.59;;;13.38;89.94
59029;BME280;45919;51.420;5.454;2022-10-16T00:13:11;100881.75;;;13.39;90.21
59029;BME280;45919;51.420;5.454;2022-10-16T00:14:14;100867.75;;;13.38;90.03
59029;BME280;45919;51.420;5.454;2022-10-16T00:15:16;100875.63;;;13.37;90.03
59029;BME280;45919;51.420;5.454;2022-10-16T00:16:18;100879.13;;;13.37;90.04
59029;BME280;45919;51.420;5.454;2022-10-16T00:17:20;100875.63;;;13.37;90.18
59029;BME280;45919;51.420;5.454;2022-10-16T00:18:22;100884.38;;;13.37;89.89
59029;BME280;45919;51.420;5.454;2022-10-16T00:19:23;100880.88;;;13.35;90.10
59029;BME280;45919;51.420;5.454;2022-10-16T00:20:25;100884.34;;;13.34;90.12
59029;BME280;45919;51.420;5.454;2022-10-16T00:21:29;100879.97;;;13.36;90.44
59029;BME280;45919;51.420;5.454;2022-10-16T00:22:30;100864.19;;;13.25;90.44
59029;BME280;45919;51.420;5.454;2022-10-16T00:23:32;100881.72;;;13.33;90.42
59029;BME280;45919;51.420;5.454;2022-10-16T00:24:34;100879.97;;;13.32;90.38
59029;BME280;45919;51.420;5.454;2022-10-16T00:25:36;100872.06;;;13.27;90.27
59029;BME280;45919;51.420;5.454;2022-10-16T00:26:38;100888.69;;;13.31;90.54
59029;BME280;45919;51.420;5.454;2022-10-16T00:27:40;100868.59;;;13.30;90.27
59029;BME280;45919;51.420;5.454;2022-10-16T00:28:42;100877.31;;;13.27;90.44
59029;BME280;45919;51.420;5.454;2022-10-16T00:29:43;100877.31;;;13.27;90.33
59029;BME280;45919;51.420;5.454;2022-10-16T00:30:45;100880.81;;;13.26;90.49
59029;BME280;45919;51.420;5.454;2022-10-16T00:31:46;100869.44;;;13.24;90.38
59029;BME280;45919;51.420;5.454;2022-10-16T00:32:48;100869.44;;;13.24;90.60
59029;BME280;45919;51.420;5.454;2022-10-16T00:33:50;100852.75;;;13.11;90.73
59029;BME280;45919;51.420;5.454;2022-10-16T00:34:52;100873.81;;;13.23;90.47
59029;BME280;45919;51.420;5.454;2022-10-16T00:36:00;100791.41;;;12.74;90.80
59029;BME280;45919;51.420;5.454;2022-10-16T00:37:02;100867.66;;;13.21;90.66
59029;BME280;45919;51.420;5.454;2022-10-16T00:38:04;100868.53;;;13.19;90.65
59029;BME280;45919;51.420;5.454;2022-10-16T00:39:05;100875.53;;;13.20;90.77
59029;BME280;45919;51.420;5.454;2022-10-16T00:40:07;100830.78;;;12.84;90.55
59029;BME280;45919;51.420;5.454;2022-10-16T00:41:13;100880.78;;;13.18;90.92
59029;BME280;45919;51.420;5.454;2022-10-16T00:42:17;100883.41;;;13.18;90.70
59029;BME280;45919;51.420;5.454;2022-10-16T00:44:49;100892.16;;;13.23;91.22
59029;BME280;45919;51.420;5.454;2022-10-16T00:45:51;100900.00;;;13.15;91.05
59029;BME280;45919;51.420;5.454;2022-10-16T00:46:52;100891.25;;;13.13;91.10
59029;BME280;45919;51.420;5.454;2022-10-16T00:47:55;100896.50;;;13.13;91.16
59029;BME280;45919;51.420;5.454;2022-10-16T00:49:14;100898.25;;;13.18;91.11
59029;BME280;45919;51.420;5.454;2022-10-16T00:50:37;100894.78;;;13.23;91.08
59029;BME280;45919;51.420;5.454;2022-10-16T00:51:50;100886.03;;;13.18;91.42
59029;BME280;45919;51.420;5.454;2022-10-16T00:52:54;100874.53;;;12.93;91.30
59029;BME280;45919;51.420;5.454;2022-10-16T00:53:57;100894.72;;;13.08;91.28
59029;BME280;45919;51.420;5.454;2022-10-16T00:55:00;100888.56;;;13.01;91.33
59029;BME280;45919;51.420;5.454;2022-10-16T00:56:03;100886.78;;;13.00;91.44
59029;BME280;45919;51.420;5.454;2022-10-16T00:57:06;100888.56;;;13.04;91.44
59029;BME280;45919;51.420;5.454;2022-10-16T00:58:09;100895.56;;;13.03;91.47
59029;BME280;45919;51.420;5.454;2022-10-16T00:59:20;100891.22;;;13.07;91.48
59029;BME280;45919;51.420;5.454;2022-10-16T01:00:26;100892.06;;;13.03;91.46
59029;BME280;45919;51.420;5.454;2022-10-16T01:01:27;100888.56;;;13.01;91.60
59029;BME280;45919;51.420;5.454;2022-10-16T01:02:29;100892.94;;;12.99;91.38
59029;BME280;45919;51.420;5.454;2022-10-16T01:03:33;100888.53;;;12.99;91.63
59029;BME280;45919;51.420;5.454;2022-10-16T01:04:42;100897.28;;;13.00;91.77
59029;BME280;45919;51.420;5.454;2022-10-16T01:05:51;100886.81;;;13.01;92.19
59029;BME280;45919;51.420;5.454;2022-10-16T01:07:25;100884.22;;;13.06;92.03
59029;BME280;45919;51.420;5.454;2022-10-16T01:08:39;100885.06;;;12.99;91.75
59029;BME280;45919;51.420;5.454;2022-10-16T01:11:33;100880.66;;;12.96;92.19
59029;BME280;45919;51.420;5.454;2022-10-16T01:12:45;100876.28;;;12.94;92.40
59029;BME280;45919;51.420;5.454;2022-10-16T01:13:53;100871.88;;;12.88;91.98
59029;BME280;45919;51.420;5.454;2022-10-16T01:16:56;100871.84;;;12.83;92.03
59029;BME280;45919;51.420;5.454;2022-10-16T01:18:43;100875.34;;;12.87;92.35
59029;BME280;45919;51.420;5.454;2022-10-16T01:20:13;100877.97;;;12.87;92.50
59029;BME280;45919;51.420;5.454;2022-10-16T01:21:33;100878.88;;;12.87;92.62
59029;BME280;45919;51.420;5.454;2022-10-16T01:22:48;100883.22;;;12.84;92.74
59029;BME280;45919;51.420;5.454;2022-10-16T01:25:07;100881.44;;;12.79;92.87
59029;BME280;45919;51.420;5.454;2022-10-16T01:27:27;100890.16;;;12.77;92.55
59029;BME280;45919;51.420;5.454;2022-10-16T01:28:45;100881.47;;;12.83;92.69
59029;BME280;45919;51.420;5.454;2022-10-16T01:31:29;100842.84;;;12.55;92.74
59029;BME280;45919;51.420;5.454;2022-10-16T01:32:43;100891.97;;;12.84;92.78
59029;BME280;45919;51.420;5.454;2022-10-16T01:33:51;100887.56;;;12.80;92.65
59029;BME280;45919;51.420;5.454;2022-10-16T01:35:23;100883.22;;;12.85;92.67
59029;BME280;45919;51.420;5.454;2022-10-16T01:36:33;100886.66;;;12.75;92.54
59029;BME280;45919;51.420;5.454;2022-10-16T01:37:44;100889.28;;;12.81;92.47
59029;BME280;45919;51.420;5.454;2022-10-16T01:38:50;100891.06;;;12.79;92.48
59029;BME280;45919;51.420;5.454;2022-10-16T01:39:55;100855.06;;;12.58;92.57
59029;BME280;45919;51.420;5.454;2022-10-16T01:41:04;100899.78;;;12.79;92.59
59029;BME280;45919;51.420;5.454;2022-10-16T01:42:12;100894.53;;;12.81;92.28
59029;BME280;45919;51.420;5.454;2022-10-16T01:43:18;100904.19;;;12.82;92.50
59029;BME280;45919;51.420;5.454;2022-10-16T01:44:26;100899.81;;;12.83;92.70
59029;BME280;45919;51.420;5.454;2022-10-16T01:45:31;100896.31;;;12.84;92.41
59029;BME280;45919;51.420;5.454;2022-10-16T01:46:36;100898.09;;;12.86;92.30
59029;BME280;45919;51.420;5.454;2022-10-16T01:47:40;100890.22;;;12.86;92.29
59029;BME280;45919;51.420;5.454;2022-10-16T01:48:42;100886.72;;;12.87;92.09
59029;BME280;45919;51.420;5.454;2022-10-16T01:49:44;100889.34;;;12.89;92.08
59029;BME280;45919;51.420;5.454;2022-10-16T01:51:19;100882.50;;;13.08;92.35
59029;BME280;45919;51.420;5.454;2022-10-16T01:52:23;100894.66;;;12.98;91.70
59029;BME280;45919;51.420;5.454;2022-10-16T01:53:27;100888.53;;;12.98;91.72
59029;BME280;45919;51.420;5.454;2022-10-16T01:54:31;100891.19;;;13.01;91.78
59029;BME280;45919;51.420;5.454;2022-10-16T01:55:38;100898.19;;;13.03;91.75
59029;BME280;45919;51.420;5.454;2022-10-16T01:56:45;100889.41;;;13.00;91.55
59029;BME280;45919;51.420;5.454;2022-10-16T01:57:50;100883.28;;;12.99;91.41
59029;BME280;45919;51.420;5.454;2022-10-16T01:58:58;100892.94;;;13.05;91.45
59029;BME280;45919;51.420;5.454;2022-10-16T02:00:07;100899.97;;;13.09;91.32
59029;BME280;45919;51.420;5.454;2022-10-16T02:01:11;100896.44;;;13.07;91.14
59029;BME280;45919;51.420;5.454;2022-10-16T02:02:21;100894.72;;;13.09;91.16
59029;BME280;45919;51.420;5.454;2022-10-16T02:03:23;100897.34;;;13.09;91.04
59029;BME280;45919;51.420;5.454;2022-10-16T02:05:30;100889.53;;;13.15;90.81
59029;BME280;45919;51.420;5.454;2022-10-16T02:06:34;100889.47;;;13.12;90.57
59029;BME280;45919;51.420;5.454;2022-10-16T02:07:37;100896.50;;;13.13;90.52
59029;BME280;45919;51.420;5.454;2022-10-16T02:08:38;100891.25;;;13.13;90.22
59029;BME280;45919;51.420;5.454;2022-10-16T02:09:41;100896.50;;;13.13;90.17
59029;BME280;45919;51.420;5.454;2022-10-16T02:10:43;100898.25;;;13.13;90.09
59029;BME280;45919;51.420;5.454;2022-10-16T02:11:45;100904.38;;;13.13;90.21
59029;BME280;45919;51.420;5.454;2022-10-16T02:13:13;100898.31;;;13.25;90.46
59029;BME280;45919;51.420;5.454;2022-10-16T02:14:17;100898.22;;;13.11;90.10
59029;BME280;45919;51.420;5.454;2022-10-16T02:15:20;100895.59;;;13.08;90.23
59029;BME280;45919;51.420;5.454;2022-10-16T02:16:32;100894.72;;;13.11;90.07
59029;BME280;45919;51.420;5.454;2022-10-16T02:17:34;100889.47;;;13.05;89.98
59029;BME280;45919;51.420;5.454;2022-10-16T02:18:36;100886.81;;;13.01;90.29
59029;BME280;45919;51.420;5.454;2022-10-16T02:19:38;100890.31;;;12.99;90.44
59029;BME280;45919;51.420;5.454;2022-10-16T02:20:53;100889.47;;;13.08;90.41
59029;BME280;45919;51.420;5.454;2022-10-16T02:21:58;100888.53;;;12.98;90.43
59029;BME280;45919;51.420;5.454;2022-10-16T02:23:02;100883.28;;;12.96;90.47
59029;BME280;45919;51.420;5.454;2022-10-16T02:24:09;100889.41;;;12.94;90.44
59029;BME280;45919;51.420;5.454;2022-10-16T02:25:50;100883.28;;;12.96;90.68
59029;BME280;45919;51.420;5.454;2022-10-16T02:27:07;100886.81;;;13.03;90.76
59029;BME280;45919;51.420;5.454;2022-10-16T02:28:25;100892.03;;;13.00;90.93
59029;BME280;45919;51.420;5.454;2022-10-16T02:29:31;100885.84;;;12.88;90.66
59029;BME280;45919;51.420;5.454;2022-10-16T02:30:49;100888.53;;;12.95;90.90
59029;BME280;45919;51.420;5.454;2022-10-16T02:31:56;100881.47;;;12.84;90.84
59029;BME280;45919;51.420;5.454;2022-10-16T02:33:00;100890.19;;;12.85;91.11
59029;BME280;45919;51.420;5.454;2022-10-16T02:34:06;100885.81;;;12.82;90.96
59029;BME280;45919;51.420;5.454;2022-10-16T02:35:09;100891.91;;;12.81;91.40
59029;BME280;45919;51.420;5.454;2022-10-16T02:36:11;100887.56;;;12.78;91.01
59029;BME280;45919;51.420;5.454;2022-10-16T02:37:13;100854.19;;;12.55;91.18
59029;BME280;45919;51.420;5.454;2022-10-16T02:38:16;100892.78;;;12.77;91.28
59029;BME280;45919;51.420;5.454;2022-10-16T02:39:19;100896.31;;;12.79;91.42
59029;BME280;45919;51.420;5.454;2022-10-16T02:40:21;100863.81;;;12.58;91.60
59029;BME280;45919;51.420;5.454;2022-10-16T02:41:24;100895.41;;;12.77;91.67
59029;BME280;45919;51.420;5.454;2022-10-16T02:42:36;100896.31;;;12.82;91.60
59029;BME280;45919;51.420;5.454;2022-10-16T02:43:38;100898.03;;;12.77;91.42
59029;BME280;45919;51.420;5.454;2022-10-16T02:44:40;100897.13;;;12.76;91.39
59029;BME280;45919;51.420;5.454;2022-10-16T02:45:41;100894.50;;;12.75;91.39
59029;BME280;45919;51.420;5.454;2022-10-16T02:46:43;100891.88;;;12.73;91.34
59029;BME280;45919;51.420;5.454;2022-10-16T02:47:44;100887.50;;;12.74;91.50
59029;BME280;45919;51.420;5.454;2022-10-16T02:48:46;100889.25;;;12.72;91.47
59029;BME280;45919;51.420;5.454;2022-10-16T02:49:48;100888.38;;;12.71;91.66
59029;BME280;45919;51.420;5.454;2022-10-16T02:50:49;100896.22;;;12.71;91.66
59029;BME280;45919;51.420;5.454;2022-10-16T02:51:51;100893.59;;;12.70;91.56
59029;BME280;45919;51.420;5.454;2022-10-16T02:52:52;100872.56;;;12.59;91.55
59029;BME280;45919;51.420;5.454;2022-10-16T02:53:54;100891.84;;;12.68;91.50
59029;BME280;45919;51.420;5.454;2022-10-16T02:54:56;100888.31;;;12.66;91.47
59029;BME280;45919;51.420;5.454;2022-10-16T02:55:57;100908.44;;;12.67;91.50
59029;BME280;45919;51.420;5.454;2022-10-16T02:56:59;100891.81;;;12.67;91.71
59029;BME280;45919;51.420;5.454;2022-10-16T02:58:00;100873.41;;;12.56;91.71
59029;BME280;45919;51.420;5.454;2022-10-16T02:59:02;100888.31;;;12.62;91.93
59029;BME280;45919;51.420;5.454;2022-10-16T03:00:11;100890.94;;;12.66;91.96
59029;BME280;45919;51.420;5.454;2022-10-16T03:01:13;100892.69;;;12.64;91.81
59029;BME280;45919;51.420;5.454;2022-10-16T03:02:15;100891.81;;;12.64;91.73
59029;BME280;45919;51.420;5.454;2022-10-16T03:03:17;100894.44;;;12.64;91.59
59029;BME280;45919;51.420;5.454;2022-10-16T03:04:19;100895.31;;;12.64;91.83
59029;BME280;45919;51.420;5.454;2022-10-16T03:05:20;100879.53;;;12.53;91.86
59029;BME280;45919;51.420;5.454;2022-10-16T03:06:27;100900.53;;;12.63;91.86
59029;BME280;45919;51.420;5.454;2022-10-16T03:07:28;100904.03;;;12.62;91.74
59029;BME280;45919;51.420;5.454;2022-10-16T03:08:30;100904.00;;;12.59;91.94
59029;BME280;45919;51.420;5.454;2022-10-16T03:09:31;100904.00;;;12.59;91.94
59029;BME280;45919;51.420;5.454;2022-10-16T03:10:33;100870.69;;;12.39;92.10
59029;BME280;45919;51.420;5.454;2022-10-16T03:11:34;100908.38;;;12.58;92.25
59029;BME280;45919;51.420;5.454;2022-10-16T03:12:36;100899.63;;;12.58;92.05
59029;BME280;45919;51.420;5.454;2022-10-16T03:13:37;100909.25;;;12.57;92.32
59029;BME280;45919;51.420;5.454;2022-10-16T03:14:39;100901.38;;;12.57;92.18
59029;BME280;45919;51.420;5.454;2022-10-16T03:15:41;100903.13;;;12.57;92.22
59029;BME280;45919;51.420;5.454;2022-10-16T03:16:43;100870.63;;;12.37;92.00
59029;BME280;45919;51.420;5.454;2022-10-16T03:17:44;100910.09;;;12.58;92.18
59029;BME280;45919;51.420;5.454;2022-10-16T03:18:49;100917.13;;;12.62;92.50
59029;BME280;45919;51.420;5.454;2022-10-16T03:19:51;100912.72;;;12.58;92.54
59029;BME280;45919;51.420;5.454;2022-10-16T03:20:53;100927.59;;;12.57;92.46
59029;BME280;45919;51.420;5.454;2022-10-16T03:21:54;100922.34;;;12.57;92.65
59029;BME280;45919;51.420;5.454;2022-10-16T03:22:56;100920.59;;;12.58;92.48
59029;BME280;45919;51.420;5.454;2022-10-16T03:23:57;100917.13;;;12.59;92.66
59029;BME280;45919;51.420;5.454;2022-10-16T03:24:59;100916.22;;;12.58;92.44
59029;BME280;45919;51.420;5.454;2022-10-16T03:26:00;100911.00;;;12.60;92.43
59029;BME280;45919;51.420;5.454;2022-10-16T03:27:02;100917.97;;;12.59;92.60
59029;BME280;45919;51.420;5.454;2022-10-16T03:28:04;100906.56;;;12.49;92.68
59029;BME280;45919;51.420;5.454;2022-10-16T03:29:06;100924.09;;;12.60;92.74
59029;BME280;45919;51.420;5.454;2022-10-16T03:30:08;100932.84;;;12.62;92.60
59029;BME280;45919;51.420;5.454;2022-10-16T03:31:10;100921.47;;;12.61;92.58
59029;BME280;45919;51.420;5.454;2022-10-16T03:32:11;100929.34;;;12.60;92.60
59029;BME280;45919;51.420;5.454;2022-10-16T03:33:13;100916.22;;;12.60;92.58
59029;BME280;45919;51.420;5.454;2022-10-16T03:34:15;100917.13;;;12.60;92.80
59029;BME280;45919;51.420;5.454;2022-10-16T03:35:16;100911.00;;;12.61;92.66
59029;BME280;45919;51.420;5.454;2022-10-16T03:36:18;100911.00;;;12.61;92.86
59029;BME280;45919;51.420;5.454;2022-10-16T03:37:19;100911.00;;;12.61;93.01
59029;BME280;45919;51.420;5.454;2022-10-16T03:38:21;100917.13;;;12.62;92.85
59029;BME280;45919;51.420;5.454;2022-10-16T03:39:23;100906.66;;;12.63;92.80
59029;BME280;45919;51.420;5.454;2022-10-16T03:40:25;100909.28;;;12.63;92.97
59029;BME280;45919;51.420;5.454;2022-10-16T03:41:26;100918.91;;;12.64;92.65
59029;BME280;45919;51.420;5.454;2022-10-16T03:42:28;100920.66;;;12.65;92.59
59029;BME280;45919;51.420;5.454;2022-10-16T03:43:29;100906.56;;;12.54;92.76
59029;BME280;45919;51.420;5.454;2022-10-16T03:44:31;100919.72;;;12.57;92.59
59029;BME280;45919;51.420;5.454;2022-10-16T03:45:33;100929.41;;;12.66;92.58
59029;BME280;45919;51.420;5.454;2022-10-16T03:46:34;100932.84;;;12.63;92.80
59029;BME280;45919;51.420;5.454;2022-10-16T03:47:36;100923.28;;;12.65;92.64
59029;BME280;45919;51.420;5.454;2022-10-16T03:48:37;100935.50;;;12.66;92.67
59029;BME280;45919;51.420;5.454;2022-10-16T03:49:39;100919.75;;;12.60;92.71
59029;BME280;45919;51.420;5.454;2022-10-16T03:50:40;100919.75;;;12.60;92.90
59029;BME280;45919;51.420;5.454;2022-10-16T03:51:42;100934.66;;;12.69;92.57
59029;BME280;45919;51.420;5.454;2022-10-16T03:52:44;100943.41;;;12.70;92.82
59029;BME280;45919;51.420;5.454;2022-10-16T03:53:45;100945.16;;;12.71;92.88
59029;BME280;45919;51.420;5.454;2022-10-16T03:54:47;100945.16;;;12.71;92.83
59029;BME280;45919;51.420;5.454;2022-10-16T03:55:48;100931.97;;;12.63;92.48
59029;BME280;45919;51.420;5.454;2022-10-16T03:56:50;100943.41;;;12.71;92.74
59029;BME280;45919;51.420;5.454;2022-10-16T03:57:51;100931.13;;;12.64;92.63
59029;BME280;45919;51.420;5.454;2022-10-16T03:58:53;100945.16;;;12.72;92.83
59029;BME280;45919;51.420;5.454;2022-10-16T03:59:54;100949.56;;;12.73;92.69
59029;BME280;45919;51.420;5.454;2022-10-16T04:00:56;100948.66;;;12.73;92.52
59029;BME280;45919;51.420;5.454;2022-10-16T04:01:58;100927.63;;;12.66;92.49
59029;BME280;45919;51.420;5.454;2022-10-16T04:02:59;100935.56;;;12.74;92.58
59029;BME280;45919;51.420;5.454;2022-10-16T04:04:01;100939.97;;;12.75;92.60
59029;BME280;45919;51.420;5.454;2022-10-16T04:05:03;100862.75;;;12.31;92.39
59029;BME280;45919;51.420;5.454;2022-10-16T04:06:04;100937.34;;;12.75;92.72
59029;BME280;45919;51.420;5.454;2022-10-16T04:07:06;100937.34;;;12.75;92.62
59029;BME280;45919;51.420;5.454;2022-10-16T04:08:07;100938.19;;;12.76;92.54
59029;BME280;45919;51.420;5.454;2022-10-16T04:09:09;100932.09;;;12.75;92.58
59029;BME280;45919;51.420;5.454;2022-10-16T04:10:10;100938.19;;;12.76;92.72
59029;BME280;45919;51.420;5.454;2022-10-16T04:11:12;100938.19;;;12.76;92.49
59029;BME280;45919;51.420;5.454;2022-10-16T04:12:14;100944.31;;;12.76;92.52
59029;BME280;45919;51.420;5.454;2022-10-16T04:13:15;100945.19;;;12.75;92.46
59029;BME280;45919;51.420;5.454;2022-10-16T04:14:17;100952.19;;;12.76;92.59
59029;BME280;45919;51.420;5.454;2022-10-16T04:15:18;100925.00;;;12.63;92.59
59029;BME280;45919;51.420;5.454;2022-10-16T04:16:20;100946.06;;;12.76;92.69
59029;BME280;45919;51.420;5.454;2022-10-16T04:17:22;100953.94;;;12.77;92.69
59029;BME280;45919;51.420;5.454;2022-10-16T04:18:24;100946.94;;;12.76;92.73
59029;BME280;45919;51.420;5.454;2022-10-16T04:19:28;100953.06;;;12.77;92.95
59029;BME280;45919;51.420;5.454;2022-10-16T04:20:29;100961.78;;;12.77;92.56
59029;BME280;45919;51.420;5.454;2022-10-16T04:21:31;100946.94;;;12.76;92.98
59029;BME280;45919;51.420;5.454;2022-10-16T04:22:32;100946.94;;;12.78;92.83
59029;BME280;45919;51.420;5.454;2022-10-16T04:23:34;100945.22;;;12.77;92.88
59029;BME280;45919;51.420;5.454;2022-10-16T04:24:36;100942.59;;;12.75;93.03
59029;BME280;45919;51.420;5.454;2022-10-16T04:25:37;100947.84;;;12.77;93.05
59029;BME280;45919;51.420;5.454;2022-10-16T04:26:39;100956.56;;;12.77;92.90
59029;BME280;45919;51.420;5.454;2022-10-16T04:27:40;100953.94;;;12.77;93.12
59029;BME280;45919;51.420;5.454;2022-10-16T04:28:42;100951.31;;;12.76;93.02
59029;BME280;45919;51.420;5.454;2022-10-16T04:29:44;100935.56;;;12.77;92.97
59029;BME280;45919;51.420;5.454;2022-10-16T04:30:45;100934.72;;;12.77;93.17
59029;BME280;45919;51.420;5.454;2022-10-16T04:31:47;100941.69;;;12.76;93.04
59029;BME280;45919;51.420;5.454;2022-10-16T04:32:49;100949.56;;;12.78;93.28
59029;BME280;45919;51.420;5.454;2022-10-16T04:33:51;100962.69;;;12.78;93.16
59029;BME280;45919;51.420;5.454;2022-10-16T04:34:53;100951.34;;;12.79;93.18
59029;BME280;45919;51.420;5.454;2022-10-16T04:35:58;100961.84;;;12.81;93.53
59029;BME280;45919;51.420;5.454;2022-10-16T04:37:00;100949.56;;;12.79;93.41
59029;BME280;45919;51.420;5.454;2022-10-16T04:38:02;100949.56;;;12.78;93.20
59029;BME280;45919;51.420;5.454;2022-10-16T04:39:04;100947.84;;;12.78;93.16
59029;BME280;45919;51.420;5.454;2022-10-16T04:40:06;100957.44;;;12.79;93.56
59029;BME280;45919;51.420;5.454;2022-10-16T04:41:08;100954.81;;;12.81;93.42
59029;BME280;45919;51.420;5.454;2022-10-16T04:42:09;100960.94;;;12.80;93.40
59029;BME280;45919;51.420;5.454;2022-10-16T04:43:11;100946.06;;;12.76;93.58
59029;BME280;45919;51.420;5.454;2022-10-16T04:44:12;100957.44;;;12.78;93.40
59029;BME280;45919;51.420;5.454;2022-10-16T04:45:14;100960.94;;;12.77;93.37
59029;BME280;45919;51.420;5.454;2022-10-16T04:46:16;100960.06;;;12.79;93.31
59029;BME280;45919;51.420;5.454;2022-10-16T04:47:18;100960.94;;;12.78;93.47
59029;BME280;45919;51.420;5.454;2022-10-16T04:48:20;100972.31;;;12.79;93.39
59029;BME280;45919;51.420;5.454;2022-10-16T04:49:21;100965.28;;;12.78;93.40
59029;BME280;45919;51.420;5.454;2022-10-16T04:50:23;100969.66;;;12.77;93.98
59029;BME280;45919;51.420;5.454;2022-10-16T04:51:25;100971.44;;;12.78;93.54
59029;BME280;45919;51.420;5.454;2022-10-16T04:52:27;100976.66;;;12.77;93.70
59029;BME280;45919;51.420;5.454;2022-10-16T04:53:29;100979.28;;;12.77;93.73
59029;BME280;45919;51.420;5.454;2022-10-16T04:54:30;100973.13;;;12.73;93.94
59029;BME280;45919;51.420;5.454;2022-10-16T04:55:32;100973.16;;;12.76;94.03
59029;BME280;45919;51.420;5.454;2022-10-16T04:56:34;100974.88;;;12.73;94.10
59029;BME280;45919;51.420;5.454;2022-10-16T04:57:41;100961.69;;;12.65;93.94
59029;BME280;45919;51.420;5.454;2022-10-16T04:58:43;100976.63;;;12.74;94.18
59029;BME280;45919;51.420;5.454;2022-10-16T04:59:44;100980.13;;;12.74;94.24
59029;BME280;45919;51.420;5.454;2022-10-16T05:00:46;100974.81;;;12.66;94.06
59029;BME280;45919;51.420;5.454;2022-10-16T05:01:48;100982.75;;;12.73;94.39
59029;BME280;45919;51.420;5.454;2022-10-16T05:02:50;100977.50;;;12.73;94.25
59029;BME280;45919;51.420;5.454;2022-10-16T05:03:52;100981.00;;;12.72;94.27
59029;BME280;45919;51.420;5.454;2022-10-16T05:04:53;100960.78;;;12.60;94.26
59029;BME280;45919;51.420;5.454;2022-10-16T05:05:55;100980.09;;;12.71;94.58
59029;BME280;45919;51.420;5.454;2022-10-16T05:06:57;100984.47;;;12.71;94.60
59029;BME280;45919;51.420;5.454;2022-10-16T05:07:59;100977.41;;;12.65;94.59
59029;BME280;45919;51.420;5.454;2022-10-16T05:09:00;100992.34;;;12.72;94.74
59029;BME280;45919;51.420;5.454;2022-10-16T05:10:02;100994.94;;;12.72;94.79
59029;BME280;45919;51.420;5.454;2022-10-16T05:11:04;100998.44;;;12.71;94.75
59029;BME280;45919;51.420;5.454;2022-10-16T05:12:06;100994.06;;;12.70;94.81
59029;BME280;45919;51.420;5.454;2022-10-16T05:13:07;100993.19;;;12.68;94.77
59029;BME280;45919;51.420;5.454;2022-10-16T05:14:09;100997.56;;;12.71;94.74
59029;BME280;45919;51.420;5.454;2022-10-16T05:15:11;101001.06;;;12.70;94.91
59029;BME280;45919;51.420;5.454;2022-10-16T05:16:13;101005.44;;;12.71;94.84
59029;BME280;45919;51.420;5.454;2022-10-16T05:17:14;101007.16;;;12.68;94.51
59029;BME280;45919;51.420;5.454;2022-10-16T05:18:16;101013.28;;;12.67;94.73
59029;BME280;45919;51.420;5.454;2022-10-16T05:19:18;101013.28;;;12.69;94.68
59029;BME280;45919;51.420;5.454;2022-10-16T05:20:27;101011.56;;;12.70;94.61
59029;BME280;45919;51.420;5.454;2022-10-16T05:21:29;101014.13;;;12.66;94.64
59029;BME280;45919;51.420;5.454;2022-10-16T05:22:31;101001.00;;;12.65;94.72
59029;BME280;45919;51.420;5.454;2022-10-16T05:23:32;101004.50;;;12.65;94.65
59029;BME280;45919;51.420;5.454;2022-10-16T05:24:34;100970.22;;;12.40;94.66
59029;BME280;45919;51.420;5.454;2022-10-16T05:25:36;101008.84;;;12.63;94.62
59029;BME280;45919;51.420;5.454;2022-10-16T05:26:38;100993.84;;;12.47;94.90
59029;BME280;45919;51.420;5.454;2022-10-16T05:27:40;101010.59;;;12.63;94.95
59029;BME280;45919;51.420;5.454;2022-10-16T05:28:41;101019.34;;;12.62;94.81
59029;BME280;45919;51.420;5.454;2022-10-16T05:29:44;101014.09;;;12.62;95.23
59029;BME280;45919;51.420;5.454;2022-10-16T05:30:46;101017.53;;;12.59;95.38
59029;BME280;45919;51.420;5.454;2022-10-16T05:31:52;101013.19;;;12.61;95.36
59029;BME280;45919;51.420;5.454;2022-10-16T05:32:54;101021.91;;;12.57;95.24
59029;BME280;45919;51.420;5.454;2022-10-16T05:33:59;101019.31;;;12.60;95.48
59029;BME280;45919;51.420;5.454;2022-10-16T05:35:01;101020.13;;;12.54;95.23
59029;BME280;45919;51.420;5.454;2022-10-16T05:36:04;101023.66;;;12.55;95.29
59029;BME280;45919;51.420;5.454;2022-10-16T05:37:07;100971.84;;;12.26;95.55
59029;BME280;45919;51.420;5.454;2022-10-16T05:38:08;101023.63;;;12.53;95.55
59029;BME280;45919;51.420;5.454;2022-10-16T05:39:10;101032.31;;;12.51;95.56
59029;BME280;45919;51.420;5.454;2022-10-16T05:40:11;101010.38;;;12.39;95.69
59029;BME280;45919;51.420;5.454;2022-10-16T05:41:14;101034.94;;;12.51;96.28
59029;BME280;45919;51.420;5.454;2022-10-16T05:42:15;101037.56;;;12.51;96.11
59029;BME280;45919;51.420;5.454;2022-10-16T05:43:17;101036.69;;;12.52;96.26
59029;BME280;45919;51.420;5.454;2022-10-16T05:44:18;101032.31;;;12.48;96.15
59029;BME280;45919;51.420;5.454;2022-10-16T05:45:20;101048.03;;;12.49;95.93